메인 페이지
METAR-TAF:

METAR-TAF

공항 :

Sulphur Springs Municipal Airport

Sulphur Springs, 텍사스, 미국

위도: 33-09-40N, 경도: 095-37-16W, 고도: 149m

현재 날씨관측

예보는 15분 전, 18:35시(UTC)에 발표되었습니다.
6kt
온도 16°C
습도 45%
기압 1025 hPa
시정: 16.1km
맑음

METAR: KSLR 161835Z AUTO 19006KT 10SM CLR 16/04 A3028 RMK AO2 T01570040

시각: 12:50 (18:50 UTC)


TAF: 누락

4,000개 이상의 공항 관측 자료 및 예보 (METAR 및 TAF 보고).

지도상에서 검색 가능한 기상관측소가 노란 점과 빨간 점으로 표시되어 있습니다.

기상관측소 명을 보려면 표시 위로 마우스를 이동하세요.

날씨 관측과 예보를 보려면 클릭하세요.

지도 변경 : 확대하려면 엑스 표시가 있는 녹색 버튼, 축소하려면 빼기 표시가 있는 녹색 버튼, 다음 페이지의 지도를 보려면 녹색 화살표를 클릭하세요.


METAR-TAF: